createdAt,value
2018-08-21T00:00:38.437Z,0
2018-08-21T00:01:18.939Z,0
2018-08-21T00:01:59.439Z,0
2018-08-21T00:02:39.968Z,0
2018-08-21T00:03:20.473Z,0
2018-08-21T00:04:00.962Z,0
2018-08-21T00:04:41.458Z,0
2018-08-21T00:05:21.963Z,0
2018-08-21T00:06:02.455Z,0
2018-08-21T00:06:42.983Z,0
2018-08-21T00:07:23.501Z,0
2018-08-21T00:08:04.003Z,0
2018-08-21T00:08:44.502Z,0
2018-08-21T00:09:24.990Z,0
2018-08-21T00:10:05.489Z,0
2018-08-21T00:10:45.980Z,0
2018-08-21T00:11:26.505Z,0
2018-08-21T00:12:06.991Z,0
2018-08-21T00:12:47.493Z,0
2018-08-21T00:13:27.980Z,0
2018-08-21T00:14:08.441Z,0
2018-08-21T00:14:48.953Z,0
2018-08-21T00:15:29.489Z,0
2018-08-21T00:16:09.953Z,0
2018-08-21T00:16:50.454Z,0
2018-08-21T00:17:30.943Z,0
2018-08-21T00:18:11.459Z,0
2018-08-21T00:18:51.954Z,0
2018-08-21T00:19:32.462Z,0
2018-08-21T00:20:13.008Z,0
2018-08-21T00:20:53.487Z,0
2018-08-21T00:21:34.003Z,0
2018-08-21T00:22:14.476Z,0
2018-08-21T00:22:54.967Z,0
2018-08-21T00:23:35.474Z,0
2018-08-21T00:24:15.972Z,0
2018-08-21T00:24:56.455Z,0
2018-08-21T00:25:36.967Z,0
2018-08-21T00:26:17.455Z,0
2018-08-21T00:26:57.977Z,0
2018-08-21T00:27:38.488Z,0
2018-08-21T00:28:18.961Z,0
2018-08-21T00:28:59.463Z,0
2018-08-21T00:29:39.953Z,0
2018-08-21T00:30:20.429Z,0
2018-08-21T00:31:00.966Z,0
2018-08-21T00:31:41.432Z,0
2018-08-21T00:32:21.957Z,0
2018-08-21T00:33:02.422Z,0
2018-08-21T00:33:42.928Z,0
2018-08-21T00:34:23.426Z,0
2018-08-21T00:35:03.919Z,0
2018-08-21T00:35:44.418Z,0
2018-08-21T00:36:24.916Z,0
2018-08-21T00:37:05.365Z,0
2018-08-21T00:37:45.851Z,0
2018-08-21T00:38:26.333Z,0
2018-08-21T00:39:06.856Z,0
2018-08-21T00:39:47.318Z,0
2018-08-21T00:40:27.810Z,0
2018-08-21T00:41:08.296Z,0
2018-08-21T00:41:48.793Z,0
2018-08-21T00:42:29.261Z,0
2018-08-21T00:43:09.784Z,0
2018-08-21T00:43:50.259Z,0
2018-08-21T00:44:30.802Z,0
2018-08-21T00:45:11.284Z,0
2018-08-21T00:45:51.781Z,0
2018-08-21T00:46:32.256Z,0
2018-08-21T00:47:12.742Z,0
2018-08-21T00:47:53.270Z,0
2018-08-21T00:48:33.797Z,0
2018-08-21T00:49:14.292Z,0
2018-08-21T00:49:55.415Z,0
2018-08-21T00:50:35.952Z,0
2018-08-21T00:51:16.448Z,0
2018-08-21T00:51:56.923Z,0
2018-08-21T00:52:37.426Z,0
2018-08-21T00:53:17.913Z,0
2018-08-21T00:53:58.386Z,0
2018-08-21T00:54:38.878Z,0
2018-08-21T00:55:19.402Z,0
2018-08-21T00:55:59.895Z,0
2018-08-21T00:56:40.373Z,0
2018-08-21T00:57:20.864Z,0
2018-08-21T00:58:01.334Z,0
2018-08-21T00:58:41.831Z,0
2018-08-21T00:59:22.343Z,0
2018-08-21T01:00:02.871Z,0
2018-08-21T01:00:43.335Z,0
2018-08-21T01:01:23.819Z,0
2018-08-21T01:02:04.343Z,0
2018-08-21T01:02:44.882Z,0
2018-08-21T01:03:25.370Z,0
2018-08-21T01:04:05.915Z,0
2018-08-21T01:04:46.422Z,0
2018-08-21T01:05:26.890Z,0
2018-08-21T01:06:07.431Z,0
2018-08-21T01:06:47.892Z,0
2018-08-21T01:07:28.372Z,0
2018-08-21T01:08:08.862Z,0
2018-08-21T01:08:49.328Z,0
2018-08-21T01:09:29.818Z,0
2018-08-21T01:10:10.455Z,0
2018-08-21T01:10:50.898Z,0
2018-08-21T01:11:31.381Z,0
2018-08-21T01:12:11.884Z,0
2018-08-21T01:12:52.378Z,0
2018-08-21T01:13:32.887Z,0
2018-08-21T01:14:13.406Z,0
2018-08-21T01:14:53.975Z,0
2018-08-21T01:15:34.375Z,0
2018-08-21T01:16:14.886Z,0
2018-08-21T01:16:55.435Z,0
2018-08-21T01:17:35.933Z,0
2018-08-21T01:18:16.367Z,0
2018-08-21T01:18:56.923Z,0
2018-08-21T01:19:37.348Z,0
2018-08-21T01:20:17.854Z,0
2018-08-21T01:20:58.368Z,0
2018-08-21T01:21:38.866Z,0
2018-08-21T01:22:19.337Z,0
2018-08-21T01:22:59.816Z,0
2018-08-21T01:23:40.359Z,0
2018-08-21T01:24:20.816Z,0
2018-08-21T01:25:01.320Z,0
2018-08-21T01:25:41.815Z,0
2018-08-21T01:26:22.298Z,0
2018-08-21T01:27:02.777Z,0
2018-08-21T01:27:43.306Z,0
2018-08-21T01:28:23.797Z,0
2018-08-21T01:29:04.265Z,0
2018-08-21T01:29:44.737Z,0
2018-08-21T01:30:25.221Z,0
2018-08-21T01:31:05.751Z,0
2018-08-21T01:31:46.252Z,0
2018-08-21T01:32:26.744Z,0
2018-08-21T01:33:07.178Z,0
2018-08-21T01:33:47.705Z,0
2018-08-21T01:34:28.200Z,0
2018-08-21T01:35:08.745Z,0
2018-08-21T01:35:49.247Z,0
2018-08-21T01:36:29.757Z,0
2018-08-21T01:37:10.227Z,0
2018-08-21T01:37:50.685Z,0
2018-08-21T01:38:31.235Z,0
2018-08-21T01:39:11.700Z,0
2018-08-21T01:39:52.202Z,0
2018-08-21T01:40:32.744Z,0
2018-08-21T01:41:13.241Z,0
2018-08-21T01:41:53.703Z,0
2018-08-21T01:42:34.246Z,0
2018-08-21T01:43:14.770Z,0
2018-08-21T01:43:55.287Z,0
2018-08-21T01:44:35.767Z,0
2018-08-21T01:45:16.309Z,0
2018-08-21T01:45:56.762Z,0
2018-08-21T01:46:37.350Z,0
2018-08-21T01:47:17.756Z,0
2018-08-21T01:47:58.251Z,0
2018-08-21T01:48:38.788Z,0
2018-08-21T01:49:19.293Z,0
2018-08-21T01:49:59.812Z,0
2018-08-21T01:50:40.322Z,0
2018-08-21T01:51:20.821Z,0
2018-08-21T01:52:01.340Z,0
2018-08-21T01:52:41.828Z,0
2018-08-21T01:53:22.382Z,0
2018-08-21T01:54:02.905Z,0
2018-08-21T01:54:43.355Z,0
2018-08-21T01:55:23.880Z,0
2018-08-21T01:56:04.398Z,0
2018-08-21T01:56:44.907Z,0
2018-08-21T01:57:25.398Z,0
2018-08-21T01:58:05.849Z,0
2018-08-21T01:58:46.366Z,0
2018-08-21T01:59:26.834Z,0
2018-08-21T02:00:07.344Z,0
2018-08-21T02:00:47.839Z,0
2018-08-21T02:01:28.365Z,0
2018-08-21T02:02:08.801Z,0
2018-08-21T02:02:49.365Z,0
2018-08-21T02:03:29.834Z,0
2018-08-21T02:04:10.315Z,0
2018-08-21T02:04:50.795Z,0
2018-08-21T02:05:31.306Z,0
2018-08-21T02:06:11.882Z,0
2018-08-21T02:06:52.328Z,0
2018-08-21T02:07:32.862Z,0
2018-08-21T02:08:13.367Z,0
2018-08-21T02:08:53.885Z,0
2018-08-21T02:09:34.316Z,0
2018-08-21T02:10:14.812Z,0
2018-08-21T02:10:55.333Z,0
2018-08-21T02:11:35.824Z,0
2018-08-21T02:12:16.315Z,0
2018-08-21T02:12:56.828Z,0
2018-08-21T02:13:37.306Z,0
2018-08-21T02:14:17.797Z,0
2018-08-21T02:14:58.314Z,0
2018-08-21T02:15:38.874Z,0
2018-08-21T02:16:19.379Z,0
2018-08-21T02:16:59.861Z,0
2018-08-21T02:17:40.357Z,0
2018-08-21T02:18:20.829Z,0
2018-08-21T02:19:01.333Z,0
2018-08-21T02:19:41.838Z,0
2018-08-21T02:20:22.325Z,0
2018-08-21T02:21:02.849Z,0
2018-08-21T02:21:43.311Z,0
2018-08-21T02:22:23.791Z,0
2018-08-21T02:23:04.288Z,0
2018-08-21T02:23:44.876Z,0
2018-08-21T02:24:25.325Z,0
2018-08-21T02:25:05.801Z,0
2018-08-21T02:25:46.311Z,0
2018-08-21T02:26:26.822Z,0
2018-08-21T02:27:07.322Z,0
2018-08-21T02:27:47.824Z,0
2018-08-21T02:28:28.357Z,0
2018-08-21T02:29:08.837Z,0
2018-08-21T02:29:49.337Z,0
2018-08-21T02:30:29.838Z,0
2018-08-21T02:31:10.323Z,0
2018-08-21T02:31:50.898Z,0
2018-08-21T02:32:31.320Z,0
2018-08-21T02:33:11.839Z,0
2018-08-21T02:33:52.341Z,0
2018-08-21T02:34:32.805Z,0
2018-08-21T02:35:13.285Z,0
2018-08-21T02:35:53.784Z,0
2018-08-21T02:36:34.298Z,0
2018-08-21T02:37:14.791Z,0
2018-08-21T02:37:55.297Z,0
2018-08-21T02:38:35.795Z,0
2018-08-21T02:39:16.246Z,0
2018-08-21T02:39:56.767Z,0
2018-08-21T02:40:37.297Z,0
2018-08-21T02:41:17.857Z,0
2018-08-21T02:41:58.263Z,0
2018-08-21T02:42:38.766Z,0
2018-08-21T02:43:19.302Z,0
2018-08-21T02:43:59.776Z,0
2018-08-21T02:44:40.250Z,0
2018-08-21T02:45:20.786Z,0
2018-08-21T02:46:01.284Z,0
2018-08-21T02:46:41.836Z,0
2018-08-21T02:47:22.307Z,0
2018-08-21T02:48:02.778Z,0
2018-08-21T02:48:43.294Z,0
2018-08-21T02:49:23.797Z,0
2018-08-21T02:50:04.304Z,0
2018-08-21T02:50:44.744Z,0
2018-08-21T02:51:25.226Z,0
2018-08-21T02:52:05.729Z,0
2018-08-21T02:52:46.219Z,0
2018-08-21T02:53:26.731Z,0
2018-08-21T02:54:07.284Z,0
2018-08-21T02:54:47.752Z,0
2018-08-21T02:55:28.227Z,0
2018-08-21T02:56:08.776Z,0
2018-08-21T02:56:49.235Z,0
2018-08-21T02:57:29.746Z,0
2018-08-21T02:58:10.260Z,0
2018-08-21T02:58:50.716Z,0
2018-08-21T02:59:31.397Z,0
2018-08-21T03:00:11.871Z,0
2018-08-21T03:00:52.339Z,0
2018-08-21T03:01:32.830Z,0
2018-08-21T03:02:13.395Z,0
2018-08-21T03:02:53.921Z,0
2018-08-21T03:03:34.391Z,0
2018-08-21T03:04:14.881Z,0
2018-08-21T03:04:55.368Z,0
2018-08-21T03:05:35.906Z,0
2018-08-21T03:06:16.412Z,0
2018-08-21T03:06:56.903Z,0
2018-08-21T03:07:37.437Z,0
2018-08-21T03:08:17.919Z,0
2018-08-21T03:08:58.646Z,0
2018-08-21T03:09:39.139Z,0
2018-08-21T03:10:19.632Z,0
2018-08-21T03:11:00.152Z,0
2018-08-21T03:11:40.585Z,0
2018-08-21T03:12:21.209Z,0
2018-08-21T03:13:01.704Z,0
2018-08-21T03:13:42.186Z,0
2018-08-21T03:14:22.706Z,0
2018-08-21T03:15:03.234Z,0
2018-08-21T03:15:43.689Z,0
2018-08-21T03:16:24.199Z,0
2018-08-21T03:17:04.704Z,0
2018-08-21T03:17:45.156Z,0
2018-08-21T03:18:25.659Z,0
2018-08-21T03:19:06.205Z,0
2018-08-21T03:19:46.676Z,0
2018-08-21T03:20:27.155Z,0
2018-08-21T03:21:07.684Z,0
2018-08-21T03:21:48.256Z,0
2018-08-21T03:22:28.692Z,0
2018-08-21T03:23:09.127Z,0
2018-08-21T03:23:49.607Z,0
2018-08-21T03:24:30.112Z,0
2018-08-21T03:25:10.640Z,0
2018-08-21T03:25:51.096Z,0
2018-08-21T03:26:31.605Z,0
2018-08-21T03:27:12.096Z,0
2018-08-21T03:27:52.553Z,0
2018-08-21T03:28:33.031Z,0
2018-08-21T03:29:13.528Z,0
2018-08-21T03:29:54.037Z,0
2018-08-21T03:30:34.540Z,0
2018-08-21T03:31:15.046Z,0
2018-08-21T03:31:55.540Z,0
2018-08-21T03:32:35.997Z,0
2018-08-21T03:33:16.498Z,0
2018-08-21T03:33:56.999Z,0
2018-08-21T03:34:37.469Z,0
2018-08-21T03:35:17.975Z,0
2018-08-21T03:35:58.477Z,0
2018-08-21T03:36:38.990Z,0
2018-08-21T03:37:19.483Z,0
2018-08-21T03:37:59.971Z,0
2018-08-21T03:38:40.481Z,0
2018-08-21T03:39:20.976Z,0
2018-08-21T03:40:01.477Z,0
2018-08-21T03:40:41.964Z,0
2018-08-21T03:41:22.467Z,0
2018-08-21T03:42:02.949Z,0
2018-08-21T03:42:43.452Z,0
2018-08-21T03:43:23.921Z,0
2018-08-21T03:44:04.473Z,0
2018-08-21T03:44:44.979Z,0
2018-08-21T03:45:25.480Z,0
2018-08-21T03:46:05.963Z,0
2018-08-21T03:46:46.513Z,0
2018-08-21T03:47:27.002Z,0
2018-08-21T03:48:07.470Z,0
2018-08-21T03:48:47.963Z,0
2018-08-21T03:49:28.418Z,0
2018-08-21T03:50:08.947Z,0
2018-08-21T03:50:49.459Z,0
2018-08-21T03:51:29.875Z,0
2018-08-21T03:52:10.417Z,0
2018-08-21T03:52:50.894Z,0
2018-08-21T03:53:31.373Z,0
2018-08-21T03:54:11.912Z,0
2018-08-21T03:54:52.404Z,0
2018-08-21T03:55:32.950Z,0
2018-08-21T03:56:13.466Z,0
2018-08-21T03:56:53.923Z,0
2018-08-21T03:57:34.481Z,0
2018-08-21T03:58:14.950Z,0
2018-08-21T03:58:55.449Z,0
2018-08-21T03:59:35.985Z,0
2018-08-21T04:00:16.507Z,0
2018-08-21T04:00:57.011Z,0
2018-08-21T04:01:37.507Z,0
2018-08-21T04:02:17.999Z,0
2018-08-21T04:02:58.429Z,0
2018-08-21T04:03:38.954Z,0
2018-08-21T04:04:19.449Z,0
2018-08-21T04:05:00.058Z,0
2018-08-21T04:05:40.520Z,0
2018-08-21T04:06:21.048Z,0
2018-08-21T04:07:01.556Z,0
2018-08-21T04:07:42.117Z,4
2018-08-21T04:08:22.597Z,4
2018-08-21T04:09:03.100Z,4
2018-08-21T04:09:43.622Z,0
2018-08-21T04:10:24.107Z,0
2018-08-21T04:11:04.580Z,0
2018-08-21T04:11:45.233Z,4
2018-08-21T04:12:25.737Z,4
2018-08-21T04:13:06.237Z,4
2018-08-21T04:13:46.726Z,0
2018-08-21T04:14:27.208Z,4
2018-08-21T04:15:07.697Z,4
2018-08-21T04:15:48.176Z,4
2018-08-21T04:16:28.706Z,4
2018-08-21T04:17:09.170Z,4
2018-08-21T04:17:49.670Z,4
2018-08-21T04:18:30.177Z,4
2018-08-21T04:19:10.638Z,4
2018-08-21T04:19:51.166Z,8
2018-08-21T04:20:31.702Z,4
2018-08-21T04:21:12.161Z,8
2018-08-21T04:21:52.685Z,8
2018-08-21T04:22:33.221Z,12
2018-08-21T04:23:13.655Z,8
2018-08-21T04:23:54.143Z,8
2018-08-21T04:24:34.667Z,12
2018-08-21T04:25:15.130Z,12
2018-08-21T04:25:55.646Z,12
2018-08-21T04:26:36.148Z,16
2018-08-21T04:27:16.637Z,16
2018-08-21T04:27:57.154Z,16
2018-08-21T04:28:37.635Z,16
2018-08-21T04:29:18.075Z,20
2018-08-21T04:29:58.621Z,20
2018-08-21T04:30:39.235Z,20
2018-08-21T04:31:19.625Z,20
2018-08-21T04:32:00.154Z,24
2018-08-21T04:32:40.702Z,24
2018-08-21T04:33:21.104Z,28
2018-08-21T04:34:01.599Z,28
2018-08-21T04:34:42.093Z,28
2018-08-21T04:35:22.610Z,32
2018-08-21T04:36:03.148Z,32
2018-08-21T04:36:43.619Z,36
2018-08-21T04:37:24.108Z,36
2018-08-21T04:38:04.678Z,40
2018-08-21T04:38:45.061Z,36
2018-08-21T04:39:25.581Z,40
2018-08-21T04:40:06.079Z,44
2018-08-21T04:40:46.564Z,48
2018-08-21T04:41:27.062Z,48
2018-08-21T04:42:07.543Z,48
2018-08-21T04:42:48.028Z,52
2018-08-21T04:43:28.553Z,52
2018-08-21T04:44:08.989Z,56
2018-08-21T04:44:49.469Z,60
2018-08-21T04:45:29.950Z,60
2018-08-21T04:46:10.420Z,64
2018-08-21T04:46:50.911Z,64
2018-08-21T04:47:31.380Z,68
2018-08-21T04:48:11.866Z,68
2018-08-21T04:48:52.390Z,72
2018-08-21T04:49:32.847Z,76
2018-08-21T04:50:13.390Z,76
2018-08-21T04:50:53.939Z,80
2018-08-21T04:51:34.388Z,84
2018-08-21T04:52:14.886Z,88
2018-08-21T04:52:55.385Z,88
2018-08-21T04:53:35.924Z,92
2018-08-21T04:54:16.426Z,96
2018-08-21T04:54:56.946Z,100
2018-08-21T04:55:37.378Z,100
2018-08-21T04:56:17.905Z,104
2018-08-21T04:56:58.371Z,108
2018-08-21T04:57:38.845Z,112
2018-08-21T04:58:19.423Z,112
2018-08-21T04:58:59.906Z,116
2018-08-21T04:59:40.420Z,120
2018-08-21T05:00:20.924Z,124
2018-08-21T05:01:01.389Z,132
2018-08-21T05:01:41.877Z,136
2018-08-21T05:02:22.390Z,140
2018-08-21T05:03:02.900Z,140
2018-08-21T05:03:43.361Z,148
2018-08-21T05:04:23.864Z,152
2018-08-21T05:05:04.365Z,156
2018-08-21T05:05:44.948Z,160
2018-08-21T05:06:25.349Z,164
2018-08-21T05:07:05.969Z,168
2018-08-21T05:07:46.388Z,172
2018-08-21T05:08:26.864Z,172
2018-08-21T05:09:07.378Z,176
2018-08-21T05:09:47.882Z,180
2018-08-21T05:10:28.364Z,180
2018-08-21T05:11:08.836Z,184
2018-08-21T05:11:49.348Z,188
2018-08-21T05:12:29.916Z,192
2018-08-21T05:13:10.349Z,196
2018-08-21T05:13:50.893Z,196
2018-08-21T05:14:31.341Z,204
2018-08-21T05:15:11.811Z,204
2018-08-21T05:15:52.300Z,204
2018-08-21T05:16:32.856Z,208
2018-08-21T05:17:13.363Z,212
2018-08-21T05:17:53.822Z,216
2018-08-21T05:18:34.516Z,220
2018-08-21T05:19:15.053Z,220
2018-08-21T05:19:55.530Z,228
2018-08-21T05:20:36.033Z,232
2018-08-21T05:21:16.538Z,236
2018-08-21T05:21:57.002Z,240
2018-08-21T05:22:37.509Z,244
2018-08-21T05:23:17.983Z,252
2018-08-21T05:23:58.473Z,256
2018-08-21T05:24:38.979Z,264
2018-08-21T05:25:19.428Z,268
2018-08-21T05:25:59.947Z,268
2018-08-21T05:26:40.432Z,272
2018-08-21T05:27:20.999Z,276
2018-08-21T05:28:01.458Z,280
2018-08-21T05:28:42.037Z,284
2018-08-21T05:29:22.451Z,284
2018-08-21T05:30:02.987Z,284
2018-08-21T05:30:43.461Z,284
2018-08-21T05:31:23.990Z,288
2018-08-21T05:32:04.518Z,292
2018-08-21T05:32:45.064Z,296
2018-08-21T05:33:25.596Z,296
2018-08-21T05:34:06.081Z,300
2018-08-21T05:34:46.566Z,300
2018-08-21T05:35:27.055Z,304
2018-08-21T05:36:07.518Z,308
2018-08-21T05:36:48.046Z,308
2018-08-21T05:37:28.527Z,312
2018-08-21T05:38:09.065Z,316
2018-08-21T05:38:49.506Z,316
2018-08-21T05:39:29.971Z,316
2018-08-21T05:40:10.487Z,316
2018-08-21T05:40:51.008Z,316
2018-08-21T05:41:31.533Z,320
2018-08-21T05:42:12.020Z,316
2018-08-21T05:42:52.546Z,312
2018-08-21T05:43:33.094Z,316
2018-08-21T05:44:13.550Z,316
2018-08-21T05:44:54.097Z,324
2018-08-21T05:45:34.543Z,332
2018-08-21T05:46:15.093Z,316
2018-08-21T05:46:55.540Z,316
2018-08-21T05:47:36.075Z,316
2018-08-21T05:48:16.601Z,320
2018-08-21T05:48:57.086Z,320
2018-08-21T05:49:37.624Z,324
2018-08-21T05:50:18.090Z,320
2018-08-21T05:50:58.732Z,320
2018-08-21T05:51:39.193Z,324
2018-08-21T05:52:19.691Z,324
2018-08-21T05:53:00.240Z,324
2018-08-21T05:53:40.728Z,332
2018-08-21T05:54:21.193Z,340
2018-08-21T05:55:01.743Z,348
2018-08-21T05:55:42.225Z,340
2018-08-21T05:56:22.648Z,344
2018-08-21T05:57:03.171Z,344
2018-08-21T05:57:43.629Z,340
2018-08-21T05:58:24.152Z,340
2018-08-21T05:59:04.685Z,340
2018-08-21T05:59:45.164Z,340
2018-08-21T06:00:25.636Z,340
2018-08-21T06:01:06.145Z,340
2018-08-21T06:01:46.650Z,340
2018-08-21T06:02:27.163Z,340
2018-08-21T06:03:07.625Z,340
2018-08-21T06:03:48.139Z,348
2018-08-21T06:04:28.624Z,352
2018-08-21T06:05:09.143Z,356
2018-08-21T06:05:49.609Z,356
2018-08-21T06:06:30.171Z,360
2018-08-21T06:07:10.935Z,360
2018-08-21T06:07:51.472Z,360
2018-08-21T06:08:31.946Z,364
2018-08-21T06:09:12.440Z,368
2018-08-21T06:09:52.923Z,364
2018-08-21T06:10:33.429Z,364
2018-08-21T06:11:13.918Z,364
2018-08-21T06:11:54.384Z,364
2018-08-21T06:12:34.964Z,364
2018-08-21T06:13:15.427Z,364
2018-08-21T06:13:55.943Z,368
2018-08-21T06:14:36.377Z,372
2018-08-21T06:15:16.861Z,380
2018-08-21T06:15:57.381Z,388
2018-08-21T06:16:37.850Z,392
2018-08-21T06:17:18.413Z,404
2018-08-21T06:17:58.903Z,412
2018-08-21T06:18:39.332Z,436
2018-08-21T06:19:19.814Z,432
2018-08-21T06:20:00.391Z,428
2018-08-21T06:20:40.905Z,424
2018-08-21T06:21:21.370Z,432
2018-08-21T06:22:01.845Z,428
2018-08-21T06:22:42.522Z,420
2018-08-21T06:23:22.920Z,416
2018-08-21T06:24:03.431Z,424
2018-08-21T06:24:44.094Z,436
2018-08-21T06:25:24.454Z,456
2018-08-21T06:26:04.935Z,436
2018-08-21T06:26:45.400Z,432
2018-08-21T06:27:25.899Z,436
2018-08-21T06:28:06.398Z,440
2018-08-21T06:28:46.918Z,444
2018-08-21T06:29:27.354Z,448
2018-08-21T06:30:07.875Z,464
2018-08-21T06:30:48.338Z,472
2018-08-21T06:31:28.839Z,472
2018-08-21T06:32:09.296Z,472
2018-08-21T06:32:49.806Z,476
2018-08-21T06:33:30.301Z,476
2018-08-21T06:34:10.878Z,480
2018-08-21T06:34:51.319Z,488
2018-08-21T06:35:31.872Z,488
2018-08-21T06:36:12.396Z,484
2018-08-21T06:36:52.917Z,488
2018-08-21T06:37:33.460Z,500
2018-08-21T06:38:14.019Z,512
2018-08-21T06:38:54.810Z,508
2018-08-21T06:39:34.963Z,516
2018-08-21T06:40:15.401Z,524
2018-08-21T06:40:55.928Z,520
2018-08-21T06:41:36.372Z,540
2018-08-21T06:42:16.896Z,576
2018-08-21T06:42:57.366Z,548
2018-08-21T06:43:37.879Z,552
2018-08-21T06:44:18.431Z,536
2018-08-21T06:44:58.877Z,532
2018-08-21T06:45:39.398Z,536
2018-08-21T06:46:19.865Z,544
2018-08-21T06:47:00.376Z,552
2018-08-21T06:47:40.881Z,692
2018-08-21T06:48:21.414Z,832
2018-08-21T06:49:01.893Z,912
2018-08-21T06:49:42.404Z,956
2018-08-21T06:50:22.889Z,980
2018-08-21T06:51:03.395Z,1008
2018-08-21T06:51:43.874Z,1056
2018-08-21T06:52:24.371Z,1092
2018-08-21T06:53:04.970Z,1128
2018-08-21T06:53:45.407Z,1156
2018-08-21T06:54:25.892Z,1184
2018-08-21T06:55:06.368Z,1196
2018-08-21T06:55:46.845Z,1204
2018-08-21T06:56:27.366Z,1200
2018-08-21T06:57:07.900Z,1180
2018-08-21T06:57:48.381Z,1176
2018-08-21T06:58:28.864Z,1160
2018-08-21T06:59:09.355Z,1152
2018-08-21T06:59:49.857Z,1124
2018-08-21T07:00:30.345Z,1096
2018-08-21T07:01:10.832Z,1072
2018-08-21T07:01:51.299Z,1052
2018-08-21T07:02:31.786Z,1028
2018-08-21T07:03:12.296Z,992
2018-08-21T07:03:52.798Z,984
2018-08-21T07:04:33.294Z,996
2018-08-21T07:05:13.795Z,1000
2018-08-21T07:05:54.291Z,988
2018-08-21T07:06:34.787Z,972
2018-08-21T07:07:15.275Z,944
2018-08-21T07:07:55.788Z,852
2018-08-21T07:08:36.270Z,980
2018-08-21T07:09:16.781Z,1060
2018-08-21T07:09:57.263Z,1116
2018-08-21T07:10:37.737Z,1152
2018-08-21T07:11:18.293Z,1184
2018-08-21T07:11:58.787Z,1212
2018-08-21T07:12:39.292Z,1200
2018-08-21T07:13:19.800Z,1212
2018-08-21T07:14:00.338Z,1200
2018-08-21T07:14:40.952Z,1204
2018-08-21T07:15:21.331Z,1232
2018-08-21T07:16:01.882Z,1244
2018-08-21T07:16:42.386Z,1248
2018-08-21T07:17:22.891Z,1264
2018-08-21T07:18:03.372Z,1268
2018-08-21T07:18:43.835Z,1268
2018-08-21T07:19:24.326Z,1252
2018-08-21T07:20:04.836Z,1252
2018-08-21T07:20:45.341Z,1232
2018-08-21T07:21:25.840Z,1240
2018-08-21T07:22:06.381Z,1244
2018-08-21T07:22:46.819Z,1240
2018-08-21T07:23:27.339Z,1216
2018-08-21T07:24:07.815Z,1216
2018-08-21T07:24:48.376Z,1216
2018-08-21T07:25:28.812Z,1228
2018-08-21T07:26:09.326Z,1224
2018-08-21T07:26:49.804Z,1224
2018-08-21T07:27:30.311Z,1232
2018-08-21T07:28:10.812Z,1232
2018-08-21T07:28:51.329Z,1168
2018-08-21T07:29:31.795Z,1128
2018-08-21T07:30:12.289Z,1196
2018-08-21T07:30:52.791Z,1212
2018-08-21T07:31:33.279Z,1196
2018-08-21T07:32:13.790Z,1192
2018-08-21T07:32:54.281Z,1196
2018-08-21T07:33:34.795Z,1192
2018-08-21T07:34:15.284Z,1172
2018-08-21T07:34:55.761Z,1152
2018-08-21T07:35:36.298Z,1120
2018-08-21T07:36:16.774Z,1128
2018-08-21T07:36:57.247Z,1092
2018-08-21T07:37:37.784Z,1072
2018-08-21T07:38:18.271Z,1096
2018-08-21T07:38:58.785Z,1124
2018-08-21T07:39:39.307Z,1160
2018-08-21T07:40:19.800Z,1172
2018-08-21T07:41:00.316Z,1172
2018-08-21T07:41:40.803Z,1172
2018-08-21T07:42:21.266Z,1112
2018-08-21T07:43:01.761Z,828
2018-08-21T07:43:42.237Z,776
2018-08-21T07:44:22.815Z,728
2018-08-21T07:45:03.296Z,868
2018-08-21T07:45:43.815Z,928
2018-08-21T07:46:24.366Z,932
2018-08-21T07:47:04.819Z,908
2018-08-21T07:47:45.338Z,880
2018-08-21T07:48:25.828Z,764
2018-08-21T07:49:06.302Z,636
2018-08-21T07:49:46.816Z,600
2018-08-21T07:50:27.319Z,580
2018-08-21T07:51:07.786Z,572
2018-08-21T07:51:48.346Z,564
2018-08-21T07:52:28.820Z,568
2018-08-21T07:53:09.321Z,580
2018-08-21T07:53:49.783Z,604
2018-08-21T07:54:30.320Z,620
2018-08-21T07:55:10.787Z,668
2018-08-21T07:55:51.334Z,640
2018-08-21T07:56:31.822Z,640
2018-08-21T07:57:12.327Z,656
2018-08-21T07:57:52.786Z,752
2018-08-21T07:58:33.301Z,776
2018-08-21T07:59:13.785Z,768
2018-08-21T07:59:54.273Z,728
2018-08-21T08:00:34.816Z,884
2018-08-21T08:01:15.282Z,864
2018-08-21T08:01:55.793Z,680
2018-08-21T08:02:36.308Z,664
2018-08-21T08:03:16.789Z,672
2018-08-21T08:03:57.335Z,664
2018-08-21T08:04:37.842Z,664
2018-08-21T08:05:18.324Z,672
2018-08-21T08:05:58.841Z,676
2018-08-21T08:06:39.377Z,672
2018-08-21T08:07:19.927Z,672
2018-08-21T08:08:00.336Z,672
2018-08-21T08:08:40.881Z,676
2018-08-21T08:09:21.393Z,676
2018-08-21T08:10:01.874Z,684
2018-08-21T08:10:42.372Z,688
2018-08-21T08:11:22.879Z,692
2018-08-21T08:12:03.383Z,700
2018-08-21T08:12:43.864Z,708
2018-08-21T08:13:24.412Z,724
2018-08-21T08:14:05.072Z,728
2018-08-21T08:14:45.417Z,724
2018-08-21T08:15:25.947Z,736
2018-08-21T08:16:06.425Z,776
2018-08-21T08:16:46.925Z,752
2018-08-21T08:17:27.418Z,744
2018-08-21T08:18:07.932Z,764
2018-08-21T08:18:48.476Z,836
2018-08-21T08:19:28.973Z,796
2018-08-21T08:20:09.511Z,776
2018-08-21T08:20:49.978Z,784
2018-08-21T08:21:30.536Z,892
2018-08-21T08:22:11.011Z,984
2018-08-21T08:22:51.569Z,880
2018-08-21T08:23:32.141Z,916
2018-08-21T08:24:12.549Z,764
2018-08-21T08:24:53.041Z,864
2018-08-21T08:25:33.572Z,884
2018-08-21T08:26:14.064Z,844
2018-08-21T08:26:54.531Z,660
2018-08-21T08:27:35.051Z,708
2018-08-21T08:28:15.515Z,820
2018-08-21T08:28:56.046Z,820
2018-08-21T08:29:36.531Z,808
2018-08-21T08:30:17.014Z,800
2018-08-21T08:30:57.513Z,784
2018-08-21T08:31:38.017Z,780
2018-08-21T08:32:18.515Z,776
2018-08-21T08:32:59.280Z,768
2018-08-21T08:33:39.775Z,756
2018-08-21T08:34:20.239Z,764
2018-08-21T08:35:00.743Z,756
2018-08-21T08:35:41.252Z,752
2018-08-21T08:36:21.800Z,744
2018-08-21T08:37:02.251Z,744
2018-08-21T08:37:42.784Z,748
2018-08-21T08:38:23.304Z,748
2018-08-21T08:39:03.786Z,744
2018-08-21T08:39:44.248Z,696
2018-08-21T08:40:24.871Z,732
2018-08-21T08:41:05.273Z,736
2018-08-21T08:41:45.969Z,740
2018-08-21T08:42:26.228Z,740
2018-08-21T08:43:06.708Z,692
2018-08-21T08:43:47.211Z,624
2018-08-21T08:44:27.736Z,636
2018-08-21T08:45:08.221Z,600
2018-08-21T08:45:48.732Z,612
2018-08-21T08:46:29.227Z,600
2018-08-21T08:47:09.731Z,564
2018-08-21T08:47:50.243Z,580
2018-08-21T08:48:30.697Z,660
2018-08-21T08:49:11.220Z,756
2018-08-21T08:49:51.702Z,772
2018-08-21T08:50:32.214Z,784
2018-08-21T08:51:12.762Z,756
2018-08-21T08:51:53.246Z,636
2018-08-21T08:52:33.756Z,636
2018-08-21T08:53:14.249Z,716
2018-08-21T08:53:54.726Z,644
2018-08-21T08:54:35.220Z,624
2018-08-21T08:55:15.684Z,716
2018-08-21T08:55:56.214Z,620
2018-08-21T08:56:36.682Z,616
2018-08-21T08:57:17.168Z,612
2018-08-21T08:57:57.678Z,612
2018-08-21T08:58:38.251Z,612
2018-08-21T08:59:18.747Z,620
2018-08-21T08:59:59.177Z,648
2018-08-21T09:00:39.674Z,684
2018-08-21T09:01:20.206Z,664
2018-08-21T09:02:00.689Z,820
2018-08-21T09:02:41.185Z,728
2018-08-21T09:03:21.701Z,796
2018-08-21T09:04:02.196Z,816
2018-08-21T09:04:42.668Z,788
2018-08-21T09:05:23.303Z,736
2018-08-21T09:06:03.823Z,684
2018-08-21T09:06:44.456Z,652
2018-08-21T09:07:24.877Z,712
2018-08-21T09:08:05.339Z,784
2018-08-21T09:08:45.918Z,860
2018-08-21T09:09:26.384Z,884
2018-08-21T09:10:06.875Z,824
2018-08-21T09:10:47.620Z,752
2018-08-21T09:11:28.106Z,696
2018-08-21T09:12:08.589Z,704
2018-08-21T09:12:49.053Z,692
2018-08-21T09:13:29.563Z,668
2018-08-21T09:14:10.073Z,664
2018-08-21T09:14:50.577Z,692
2018-08-21T09:15:31.039Z,752
2018-08-21T09:16:11.526Z,832
2018-08-21T09:16:52.080Z,688
2018-08-21T09:17:32.614Z,672
2018-08-21T09:18:13.059Z,664
2018-08-21T09:18:53.560Z,772
2018-08-21T09:19:34.056Z,740
2018-08-21T09:20:14.544Z,672
2018-08-21T09:20:55.022Z,660
2018-08-21T09:21:35.520Z,748
2018-08-21T09:22:16.003Z,736
2018-08-21T09:22:56.500Z,856
2018-08-21T09:23:37.021Z,800
2018-08-21T09:24:17.494Z,644
2018-08-21T09:24:58.022Z,616
2018-08-21T09:25:38.529Z,608
2018-08-21T09:26:19.039Z,624
2018-08-21T09:26:59.526Z,792
2018-08-21T09:27:40.016Z,644
2018-08-21T09:28:20.503Z,644
2018-08-21T09:29:01.000Z,616
2018-08-21T09:29:41.483Z,600
2018-08-21T09:30:21.969Z,600
2018-08-21T09:31:02.531Z,592
2018-08-21T09:31:43.015Z,536
2018-08-21T09:32:23.516Z,524
2018-08-21T09:33:04.023Z,524
2018-08-21T09:33:44.494Z,584
2018-08-21T09:34:25.043Z,572
2018-08-21T09:35:05.567Z,544
2018-08-21T09:35:46.011Z,684